createdAt,value
2022-08-07T00:01:44.053Z,1.70
2022-08-07T00:04:45.739Z,1.75
2022-08-07T00:07:58.362Z,1.58
2022-08-07T00:11:03.576Z,1.60
2022-08-07T00:14:09.182Z,2.08
2022-08-07T00:20:29.794Z,2.45
2022-08-07T00:23:39.561Z,1.90
2022-08-07T00:26:58.620Z,2.15
2022-08-07T00:30:06.063Z,1.77
2022-08-07T00:33:28.289Z,2.35
2022-08-07T00:36:38.572Z,2.35
2022-08-07T00:39:45.622Z,1.50
2022-08-07T00:42:57.513Z,1.98
2022-08-07T00:46:02.308Z,1.48
2022-08-07T00:49:05.324Z,1.80
2022-08-07T00:52:11.931Z,2.10
2022-08-07T00:55:17.438Z,1.83
2022-08-07T00:58:28.371Z,1.70
2022-08-07T01:01:44.201Z,1.77
2022-08-07T01:04:47.509Z,1.80
2022-08-07T01:07:52.584Z,1.98
2022-08-07T01:10:58.460Z,2.00
2022-08-07T01:14:28.792Z,2.00
2022-08-07T01:17:32.913Z,2.15
2022-08-07T01:20:43.181Z,2.00
2022-08-07T01:23:48.361Z,1.77
2022-08-07T01:26:52.687Z,2.50
2022-08-07T01:29:58.011Z,2.17
2022-08-07T01:33:00.857Z,1.90
2022-08-07T01:36:08.750Z,2.13
2022-08-07T01:39:16.901Z,1.77
2022-08-07T01:42:37.751Z,2.20
2022-08-07T01:45:46.569Z,1.90
2022-08-07T01:48:53.608Z,2.08
2022-08-07T01:52:03.984Z,2.10
2022-08-07T01:55:11.136Z,2.55
2022-08-07T01:58:33.390Z,2.05
2022-08-07T02:02:02.599Z,2.25
2022-08-07T02:05:06.584Z,2.00
2022-08-07T02:08:13.824Z,2.22
2022-08-07T02:11:43.400Z,2.00
2022-08-07T02:14:43.283Z,2.03
2022-08-07T02:17:56.559Z,2.20
2022-08-07T02:21:01.257Z,2.47
2022-08-07T02:24:10.472Z,2.75
2022-08-07T02:27:22.892Z,2.65
2022-08-07T02:30:26.823Z,2.65
2022-08-07T02:33:32.868Z,2.90
2022-08-07T02:36:46.524Z,2.70
2022-08-07T02:40:11.731Z,2.75
2022-08-07T02:43:21.467Z,2.90
2022-08-07T02:46:27.070Z,2.92
2022-08-07T02:49:56.356Z,3.15
2022-08-07T02:53:03.319Z,3.00
2022-08-07T02:56:17.475Z,2.85
2022-08-07T02:59:27.715Z,2.90
2022-08-07T03:02:34.859Z,2.80
2022-08-07T03:05:38.245Z,3.08
2022-08-07T03:08:42.225Z,2.78
2022-08-07T03:11:52.589Z,3.03
2022-08-07T03:15:07.963Z,3.03
2022-08-07T03:18:11.804Z,3.25
2022-08-07T03:21:20.713Z,2.40
2022-08-07T03:24:27.353Z,2.72
2022-08-07T03:27:59.490Z,2.60
2022-08-07T03:31:12.635Z,2.50
2022-08-07T03:34:22.331Z,2.88
2022-08-07T03:37:32.696Z,2.70
2022-08-07T03:40:40.075Z,3.20
2022-08-07T03:43:57.210Z,3.10
2022-08-07T03:47:13.078Z,3.17
2022-08-07T03:50:22.978Z,3.20
2022-08-07T03:53:50.083Z,3.42
2022-08-07T03:57:03.553Z,3.65
2022-08-07T04:00:09.073Z,3.90
2022-08-07T04:03:20.480Z,4.05
2022-08-07T04:06:37.224Z,4.47
2022-08-07T04:09:50.552Z,4.00
2022-08-07T04:12:57.886Z,4.53
2022-08-07T04:16:02.702Z,4.47
2022-08-07T04:19:12.563Z,4.45
2022-08-07T04:22:22.895Z,4.47
2022-08-07T04:25:29.195Z,4.55
2022-08-07T04:28:33.303Z,4.65
2022-08-07T04:32:09.683Z,4.53
2022-08-07T04:35:03.915Z,4.80
2022-08-07T04:38:08.928Z,4.70
2022-08-07T04:41:18.114Z,4.60
2022-08-07T04:44:23.347Z,4.55
2022-08-07T04:47:59.575Z,4.90
2022-08-07T04:51:03.521Z,4.75
2022-08-07T04:54:14.346Z,5.25
2022-08-07T04:58:13.161Z,5.40
2022-08-07T05:00:46.323Z,5.28
2022-08-07T05:04:07.830Z,4.90
2022-08-07T05:10:29.429Z,4.82
2022-08-07T05:14:56.174Z,5.05
2022-08-07T05:17:01.550Z,5.00
2022-08-07T05:20:10.243Z,5.80
2022-08-07T05:23:17.777Z,5.43
2022-08-07T05:26:27.403Z,5.63
2022-08-07T05:29:51.254Z,5.60
2022-08-07T05:32:56.384Z,4.97
2022-08-07T05:36:02.435Z,5.30
2022-08-07T05:40:05.841Z,5.15
2022-08-07T05:42:36.821Z,4.43
2022-08-07T05:45:47.396Z,5.05
2022-08-07T05:48:59.071Z,5.32
2022-08-07T05:52:06.721Z,4.50
2022-08-07T05:55:10.938Z,4.15
2022-08-07T05:58:22.064Z,4.07
2022-08-07T06:01:40.595Z,4.25
2022-08-07T06:04:48.030Z,4.20
2022-08-07T06:08:13.235Z,3.75
2022-08-07T06:11:17.497Z,3.45
2022-08-07T06:14:28.875Z,4.22
2022-08-07T06:17:37.368Z,3.92
2022-08-07T06:20:50.304Z,4.82
2022-08-07T06:24:45.570Z,3.40
2022-08-07T06:28:00.717Z,3.63
2022-08-07T06:30:53.057Z,3.90
2022-08-07T06:33:57.701Z,4.05
2022-08-07T06:37:02.643Z,3.58
2022-08-07T06:40:20.473Z,3.30
2022-08-07T06:43:27.445Z,2.85
2022-08-07T06:46:53.559Z,2.95
2022-08-07T06:50:12.073Z,2.88
2022-08-07T06:53:49.313Z,2.60
2022-08-07T06:56:49.367Z,3.08
2022-08-07T07:00:11.856Z,3.08
2022-08-07T07:03:39.633Z,3.50
2022-08-07T07:07:00.209Z,3.10
2022-08-07T07:10:04.064Z,3.30
2022-08-07T07:13:10.032Z,3.25
2022-08-07T07:16:19.566Z,3.40
2022-08-07T07:19:56.920Z,3.55
2022-08-07T07:24:08.111Z,3.20
2022-08-07T07:26:34.379Z,3.75
2022-08-07T07:30:08.772Z,3.50
2022-08-07T07:33:04.286Z,3.90
2022-08-07T07:36:12.763Z,9.05
2022-08-07T07:39:16.981Z,3.67
2022-08-07T07:42:25.822Z,3.75
2022-08-07T07:46:37.730Z,3.60
2022-08-07T07:49:00.274Z,3.72
2022-08-07T07:52:16.128Z,4.20
2022-08-07T07:55:19.940Z,3.75
2022-08-07T07:58:22.637Z,3.60
2022-08-07T08:02:01.666Z,3.42
2022-08-07T08:04:50.460Z,3.35
2022-08-07T08:08:00.819Z,2.75
2022-08-07T08:11:04.642Z,2.88
2022-08-07T08:14:07.356Z,2.10
2022-08-07T08:17:32.295Z,2.38
2022-08-07T08:20:36.591Z,5.50
2022-08-07T08:23:58.395Z,1.80
2022-08-07T08:27:09.785Z,1.33
2022-08-07T08:30:17.528Z,1.80
2022-08-07T08:33:24.057Z,1.35
2022-08-07T08:36:29.641Z,1.17
2022-08-07T08:39:39.273Z,1.08
2022-08-07T08:43:03.197Z,1.02
2022-08-07T08:46:09.096Z,1.13
2022-08-07T08:49:16.609Z,0.80
2022-08-07T08:52:20.622Z,4.72
2022-08-07T08:55:54.934Z,1.50
2022-08-07T08:59:08.677Z,1.08
2022-08-07T09:02:36.638Z,0.90
2022-08-07T09:05:43.560Z,0.68
2022-08-07T09:09:13.402Z,0.52
2022-08-07T09:12:32.162Z,0.43
2022-08-07T09:16:22.612Z,0.50
2022-08-07T09:19:53.471Z,0.55
2022-08-07T09:24:32.199Z,0.60
2022-08-07T09:26:19.058Z,0.90
2022-08-07T09:30:03.931Z,0.40
2022-08-07T09:33:16.678Z,0.40
2022-08-07T09:36:35.397Z,0.40
2022-08-07T09:39:53.987Z,0.45
2022-08-07T09:43:01.333Z,0.70
2022-08-07T09:47:42.357Z,0.45
2022-08-07T09:50:02.105Z,0.73
2022-08-07T09:53:12.850Z,0.40
2022-08-07T09:59:37.045Z,0.50
2022-08-07T10:03:08.062Z,0.50
2022-08-07T10:06:24.277Z,0.60
2022-08-07T10:10:00.149Z,0.93
2022-08-07T10:13:29.573Z,0.45
2022-08-07T10:16:43.205Z,0.50
2022-08-07T10:19:54.157Z,0.50
2022-08-07T10:23:12.840Z,0.70
2022-08-07T10:26:28.142Z,0.80
2022-08-07T10:29:45.525Z,0.60
2022-08-07T10:33:06.004Z,0.65
2022-08-07T10:36:18.843Z,0.60
2022-08-07T10:39:41.210Z,0.80
2022-08-07T10:42:51.915Z,0.70
2022-08-07T10:45:58.831Z,0.70
2022-08-07T10:49:10.130Z,0.63
2022-08-07T10:52:15.961Z,0.70
2022-08-07T10:55:32.639Z,0.50
2022-08-07T10:58:59.440Z,0.70
2022-08-07T11:02:12.434Z,0.50
2022-08-07T11:05:48.638Z,0.80
2022-08-07T11:08:55.518Z,0.50
2022-08-07T11:12:02.212Z,0.40
2022-08-07T11:15:17.277Z,0.52
2022-08-07T11:18:22.598Z,0.60
2022-08-07T11:21:34.975Z,0.65
2022-08-07T11:24:47.551Z,0.65
2022-08-07T11:28:04.490Z,0.70
2022-08-07T11:31:11.625Z,0.50
2022-08-07T11:34:18.655Z,0.50
2022-08-07T11:37:57.437Z,0.47
2022-08-07T11:40:58.468Z,0.65
2022-08-07T11:44:11.982Z,0.45
2022-08-07T11:47:38.565Z,0.60
2022-08-07T11:50:57.260Z,0.47
2022-08-07T11:54:10.126Z,0.40
2022-08-07T11:57:18.737Z,0.57
2022-08-07T12:00:31.192Z,0.50
2022-08-07T12:03:45.389Z,0.45
2022-08-07T12:07:00.404Z,0.40
2022-08-07T12:10:08.361Z,0.52
2022-08-07T12:13:17.120Z,0.50
2022-08-07T12:16:30.034Z,0.30
2022-08-07T12:20:03.266Z,0.50
2022-08-07T12:23:14.303Z,0.40
2022-08-07T12:26:30.298Z,3.53
2022-08-07T12:29:38.646Z,0.35
2022-08-07T12:32:49.117Z,0.40
2022-08-07T12:35:58.155Z,0.55
2022-08-07T12:39:03.198Z,0.40
2022-08-07T12:42:13.153Z,0.90
2022-08-07T12:45:18.771Z,0.40
2022-08-07T12:48:41.468Z,0.30
2022-08-07T12:52:12.283Z,0.70
2022-08-07T12:55:18.959Z,0.80
2022-08-07T12:58:22.388Z,0.50
2022-08-07T13:01:36.540Z,0.50
2022-08-07T13:05:01.554Z,0.47
2022-08-07T13:08:30.701Z,0.50
2022-08-07T13:12:02.743Z,0.47
2022-08-07T13:15:04.614Z,0.40
2022-08-07T13:18:25.905Z,0.50
2022-08-07T13:21:37.238Z,0.40
2022-08-07T13:24:55.175Z,0.50
2022-08-07T13:28:12.575Z,0.50
2022-08-07T13:31:19.999Z,0.40
2022-08-07T13:34:34.065Z,0.40
2022-08-07T13:37:43.199Z,0.50
2022-08-07T13:41:02.773Z,0.70
2022-08-07T13:44:10.412Z,0.60
2022-08-07T13:47:15.887Z,0.60
2022-08-07T13:50:32.658Z,0.65
2022-08-07T13:54:00.919Z,0.80
2022-08-07T13:57:14.407Z,1.05
2022-08-07T14:00:26.624Z,0.50
2022-08-07T14:04:07.676Z,0.50
2022-08-07T14:06:55.077Z,0.50
2022-08-07T14:10:15.612Z,0.50
2022-08-07T14:13:33.358Z,0.40
2022-08-07T14:16:38.085Z,0.52
2022-08-07T14:20:40.866Z,0.80
2022-08-07T14:23:11.823Z,0.50
2022-08-07T14:26:28.045Z,0.40
2022-08-07T14:30:06.431Z,0.50
2022-08-07T14:32:59.011Z,0.80
2022-08-07T14:36:02.722Z,0.68
2022-08-07T14:39:06.537Z,0.50
2022-08-07T14:45:26.232Z,0.50
2022-08-07T14:48:49.451Z,0.77
2022-08-07T14:52:02.800Z,0.50
2022-08-07T14:55:08.834Z,0.60
2022-08-07T14:58:24.181Z,0.80
2022-08-07T15:01:42.842Z,0.60
2022-08-07T15:04:53.543Z,0.50
2022-08-07T15:11:53.340Z,0.50
2022-08-07T15:14:57.622Z,0.50
2022-08-07T15:18:05.307Z,0.60
2022-08-07T15:21:44.732Z,0.60
2022-08-07T15:25:13.620Z,0.60
2022-08-07T15:31:58.028Z,0.47
2022-08-07T15:34:57.165Z,2.30
2022-08-07T15:38:18.193Z,0.60
2022-08-07T15:42:43.572Z,0.50
2022-08-07T15:44:52.106Z,0.70
2022-08-07T15:48:01.133Z,0.68
2022-08-07T15:51:10.123Z,0.60
2022-08-07T15:54:15.932Z,0.50
2022-08-07T15:57:27.770Z,0.60
2022-08-07T16:00:42.879Z,0.60
2022-08-07T16:03:57.294Z,0.80
2022-08-07T16:07:04.551Z,0.63
2022-08-07T16:10:15.046Z,0.70
2022-08-07T16:14:00.059Z,0.60
2022-08-07T16:17:16.326Z,1.00
2022-08-07T16:20:56.761Z,0.73
2022-08-07T16:24:34.177Z,0.60
2022-08-07T16:27:41.637Z,0.55
2022-08-07T16:30:51.065Z,0.40
2022-08-07T16:34:02.757Z,0.60
2022-08-07T16:38:05.694Z,0.60
2022-08-07T16:41:09.832Z,0.70
2022-08-07T16:44:40.390Z,0.98
2022-08-07T16:48:17.285Z,0.60
2022-08-07T16:52:01.971Z,1.50
2022-08-07T16:55:08.216Z,1.27
2022-08-07T16:58:23.571Z,0.68
2022-08-07T17:01:35.071Z,0.80
2022-08-07T17:04:58.572Z,0.70
2022-08-07T17:08:02.169Z,1.55
2022-08-07T17:11:14.280Z,0.70
2022-08-07T17:14:24.357Z,0.88
2022-08-07T17:17:46.734Z,0.60
2022-08-07T17:20:54.702Z,0.68
2022-08-07T17:24:04.099Z,0.90
2022-08-07T17:27:09.312Z,0.98
2022-08-07T17:30:26.883Z,0.90
2022-08-07T17:34:09.143Z,0.90
2022-08-07T17:37:08.950Z,0.90
2022-08-07T17:40:30.254Z,0.88
2022-08-07T17:44:03.243Z,1.20
2022-08-07T17:47:00.829Z,0.90
2022-08-07T17:50:08.744Z,0.90
2022-08-07T17:53:56.141Z,0.90
2022-08-07T17:56:49.370Z,0.90
2022-08-07T17:59:58.163Z,1.17
2022-08-07T18:03:18.465Z,1.10
2022-08-07T18:06:37.221Z,0.93
2022-08-07T18:10:05.165Z,1.35
2022-08-07T18:13:09.910Z,1.55
2022-08-07T18:16:15.400Z,1.15
2022-08-07T18:21:06.854Z,1.42
2022-08-07T18:23:05.263Z,1.30
2022-08-07T18:26:34.913Z,1.20
2022-08-07T18:30:07.621Z,1.42
2022-08-07T18:33:24.907Z,1.30
2022-08-07T18:36:39.719Z,1.30
2022-08-07T18:40:05.825Z,1.42
2022-08-07T18:43:14.949Z,0.95
2022-08-07T18:46:22.005Z,1.38
2022-08-07T18:50:31.018Z,1.00
2022-08-07T18:53:06.410Z,0.80
2022-08-07T18:56:20.726Z,1.30
2022-08-07T18:59:48.058Z,1.45
2022-08-07T19:03:12.489Z,1.20
2022-08-07T19:06:21.560Z,1.10
2022-08-07T19:09:57.486Z,1.35
2022-08-07T19:13:10.340Z,1.42
2022-08-07T19:17:05.890Z,1.88
2022-08-07T19:19:50.776Z,1.38
2022-08-07T19:23:01.935Z,1.88
2022-08-07T19:26:28.902Z,1.02
2022-08-07T19:31:05.678Z,1.33
2022-08-07T19:32:59.714Z,1.35
2022-08-07T19:36:04.006Z,1.50
2022-08-07T19:39:09.090Z,1.40
2022-08-07T19:42:24.884Z,1.95
2022-08-07T19:46:04.846Z,1.90
2022-08-07T19:48:56.550Z,1.67
2022-08-07T19:52:02.231Z,2.65
2022-08-07T19:55:05.166Z,2.45
2022-08-07T19:58:15.622Z,4.25
2022-08-07T20:04:31.262Z,3.33
2022-08-07T20:07:45.996Z,2.90
2022-08-07T20:10:55.787Z,2.17
2022-08-07T20:14:00.312Z,1.80
2022-08-07T20:17:05.513Z,16.60
2022-08-07T20:20:09.214Z,3.13
2022-08-07T20:23:33.059Z,2.17
2022-08-07T20:29:59.388Z,1.80
2022-08-07T20:33:04.712Z,2.03
2022-08-07T20:36:13.270Z,2.00
2022-08-07T20:40:03.379Z,1.75
2022-08-07T20:42:47.428Z,2.40
2022-08-07T20:46:28.096Z,2.25
2022-08-07T20:50:00.040Z,2.80
2022-08-07T20:52:52.006Z,2.20
2022-08-07T20:55:56.472Z,1.83
2022-08-07T20:59:05.054Z,1.92
2022-08-07T21:02:33.034Z,2.00
2022-08-07T21:05:50.715Z,1.90
2022-08-07T21:09:00.898Z,2.50
2022-08-07T21:12:08.106Z,3.80
2022-08-07T21:15:19.022Z,5.28
2022-08-07T21:18:29.500Z,2.20
2022-08-07T21:21:56.627Z,3.03
2022-08-07T21:25:04.586Z,3.08
2022-08-07T21:28:47.559Z,3.05
2022-08-07T21:32:42.604Z,2.87
2022-08-07T21:35:13.514Z,2.65
2022-08-07T21:38:27.431Z,2.08
2022-08-07T21:41:38.386Z,2.40
2022-08-07T21:44:58.476Z,3.00
2022-08-07T21:48:05.440Z,2.10
2022-08-07T21:51:19.499Z,2.10
2022-08-07T21:54:31.509Z,2.30
2022-08-07T21:57:51.970Z,2.58
2022-08-07T22:01:01.534Z,2.08
2022-08-07T22:04:06.807Z,2.10
2022-08-07T22:07:15.583Z,1.88
2022-08-07T22:10:20.068Z,2.00
2022-08-07T22:13:52.779Z,1.98
2022-08-07T22:16:52.016Z,1.80
2022-08-07T22:20:01.420Z,2.20
2022-08-07T22:23:23.110Z,2.10
2022-08-07T22:26:30.343Z,2.10
2022-08-07T22:29:48.340Z,2.20
2022-08-07T22:32:56.572Z,1.85
2022-08-07T22:36:00.800Z,2.30
2022-08-07T22:39:08.455Z,1.95
2022-08-07T22:42:53.954Z,2.50
2022-08-07T22:46:04.345Z,2.08
2022-08-07T22:49:16.164Z,2.05
2022-08-07T22:52:37.418Z,2.10
2022-08-07T22:55:51.238Z,1.98
2022-08-07T22:59:05.492Z,2.17
2022-08-07T23:02:18.124Z,1.83
2022-08-07T23:06:10.293Z,2.17
2022-08-07T23:10:04.037Z,2.03
2022-08-07T23:12:35.200Z,2.10
2022-08-07T23:16:05.434Z,2.20
2022-08-07T23:19:47.895Z,2.15
2022-08-07T23:23:06.708Z,2.35
2022-08-07T23:26:19.019Z,2.08
2022-08-07T23:30:37.308Z,2.47
2022-08-07T23:34:33.304Z,1.98
2022-08-07T23:36:46.751Z,1.90
2022-08-07T23:40:03.858Z,2.33
2022-08-07T23:43:18.007Z,2.58
2022-08-07T23:46:33.836Z,2.45
2022-08-07T23:49:50.397Z,2.30
2022-08-07T23:53:06.702Z,2.22
2022-08-07T23:56:21.008Z,2.38
